createdAt,value
2023-01-15T00:01:23.696Z,94765.91
2023-01-15T00:03:26.842Z,94772.88
2023-01-15T00:05:29.576Z,94755.72
2023-01-15T00:07:32.518Z,94763.22
2023-01-15T00:09:35.417Z,94757.34
2023-01-15T00:11:38.163Z,94754.66
2023-01-15T00:13:41.049Z,94760.56
2023-01-15T00:15:44.543Z,94761.91
2023-01-15T00:17:48.729Z,94741.81
2023-01-15T00:19:51.430Z,94737.25
2023-01-15T00:21:54.242Z,94749.84
2023-01-15T00:24:22.788Z,94735.13
2023-01-15T00:26:46.827Z,94716.38
2023-01-15T00:28:50.145Z,94720.38
2023-01-15T00:30:53.018Z,94718.78
2023-01-15T00:32:58.725Z,94716.38
2023-01-15T00:35:01.760Z,94720.91
2023-01-15T00:37:04.884Z,94713.69
2023-01-15T00:39:08.906Z,94718.22
2023-01-15T00:41:11.724Z,94719.03
2023-01-15T00:43:14.548Z,94645.44
2023-01-15T00:45:17.414Z,94696.78
2023-01-15T00:47:20.532Z,94691.97
2023-01-15T00:49:25.677Z,94706.94
2023-01-15T00:51:28.430Z,94692.47
2023-01-15T00:53:33.111Z,94700.22
2023-01-15T00:55:36.411Z,94701.81
2023-01-15T00:57:39.508Z,94700.47
2023-01-15T00:59:42.243Z,94691.09
2023-01-15T01:01:46.388Z,94695.38
2023-01-15T01:03:52.589Z,94690.03
2023-01-15T01:06:01.795Z,94679.03
2023-01-15T01:08:04.709Z,94687.56
2023-01-15T01:10:09.257Z,94662.38
2023-01-15T01:12:12.240Z,94690.72
2023-01-15T01:14:14.948Z,94622.78
2023-01-15T01:16:25.949Z,94697.66
2023-01-15T01:18:29.184Z,94693.38
2023-01-15T01:20:32.198Z,94681.56
2023-01-15T01:22:36.881Z,94690.16
2023-01-15T01:24:39.852Z,94696.06
2023-01-15T01:26:44.071Z,94684.25
2023-01-15T01:28:50.653Z,94615.50
2023-01-15T01:30:53.346Z,94677.25
2023-01-15T01:32:56.106Z,94636.88
2023-01-15T01:34:59.675Z,94632.91
2023-01-15T01:37:02.559Z,94665.97
2023-01-15T01:39:08.737Z,94694.41
2023-01-15T01:41:11.542Z,94666.50
2023-01-15T01:43:20.413Z,94662.22
2023-01-15T01:45:26.957Z,94657.91
2023-01-15T01:47:32.179Z,94659.47
2023-01-15T01:49:36.747Z,94656.25
2023-01-15T01:51:44.720Z,94657.84
2023-01-15T01:53:48.161Z,94664.81
2023-01-15T01:55:53.582Z,94635.56
2023-01-15T01:58:00.308Z,94640.06
2023-01-15T02:00:06.846Z,94632.59
2023-01-15T02:02:17.985Z,94642.16
2023-01-15T02:04:23.997Z,94614.78
2023-01-15T02:06:28.141Z,94640.53
2023-01-15T02:08:32.441Z,94565.88
2023-01-15T02:10:35.804Z,94594.97
2023-01-15T02:12:42.046Z,94566.81
2023-01-15T02:14:55.063Z,94607.72
2023-01-15T02:17:05.558Z,94584.88
2023-01-15T02:19:21.500Z,94520.06
2023-01-15T02:21:32.679Z,94603.16
2023-01-15T02:23:55.143Z,94610.34
2023-01-15T02:26:35.463Z,94592.59
2023-01-15T02:28:41.796Z,94582.66
2023-01-15T02:30:48.594Z,94578.34
2023-01-15T02:32:56.237Z,94590.41
2023-01-15T02:35:07.235Z,94533.34
2023-01-15T02:37:14.715Z,94591.03
2023-01-15T02:39:22.194Z,94569.03
2023-01-15T02:41:29.986Z,94523.00
2023-01-15T02:43:36.691Z,94538.50
2023-01-15T02:45:45.239Z,94566.22
2023-01-15T02:47:49.302Z,94573.78
2023-01-15T02:49:55.549Z,94583.78
2023-01-15T02:52:04.570Z,94543.53
2023-01-15T02:54:13.116Z,94556.53
2023-01-15T02:56:21.419Z,94496.72
2023-01-15T02:58:32.838Z,94556.78
2023-01-15T03:00:44.577Z,94559.16
2023-01-15T03:02:52.144Z,94565.66
2023-01-15T03:05:00.102Z,94511.09
2023-01-15T03:07:08.757Z,94557.22
2023-01-15T03:09:15.585Z,94548.69
2023-01-15T03:11:20.942Z,94557.53
2023-01-15T03:13:35.848Z,94521.50
2023-01-15T03:16:07.247Z,94541.88
2023-01-15T03:18:13.940Z,94548.56
2023-01-15T03:20:26.264Z,94554.72
2023-01-15T03:22:32.286Z,94540.28
2023-01-15T03:24:42.124Z,94552.44
2023-01-15T03:26:46.138Z,94544.91
2023-01-15T03:28:50.782Z,94553.19
2023-01-15T03:31:01.195Z,94532.22
2023-01-15T03:33:05.090Z,94529.81
2023-01-15T03:35:30.230Z,94527.38
2023-01-15T03:37:33.298Z,94518.06
2023-01-15T03:39:37.815Z,94541.63
2023-01-15T03:42:05.148Z,94596.94
2023-01-15T03:44:17.417Z,94547.53
2023-01-15T03:46:49.579Z,94532.53
2023-01-15T03:49:01.454Z,94507.66
2023-01-15T03:51:12.675Z,94527.66
2023-01-15T03:53:21.767Z,94530.91
2023-01-15T03:55:44.297Z,94474.84
2023-01-15T03:57:52.241Z,94448.06
2023-01-15T03:59:59.897Z,94536.75
2023-01-15T04:02:12.333Z,94534.28
2023-01-15T04:04:17.143Z,94541.25
2023-01-15T04:06:22.414Z,94530.00
2023-01-15T04:08:29.236Z,94535.66
2023-01-15T04:10:32.145Z,94524.97
2023-01-15T04:12:38.125Z,94522.81
2023-01-15T04:14:45.538Z,94527.88
2023-01-15T04:16:53.874Z,94477.94
2023-01-15T04:19:01.300Z,94471.53
2023-01-15T04:21:05.634Z,94513.19
2023-01-15T04:23:10.511Z,94452.91
2023-01-15T04:25:13.268Z,94515.91
2023-01-15T04:27:16.073Z,94490.41
2023-01-15T04:29:19.106Z,94519.78
2023-01-15T04:31:22.232Z,94503.22
2023-01-15T04:33:25.125Z,94511.53
2023-01-15T04:35:29.659Z,94510.47
2023-01-15T04:37:32.412Z,94511.31
2023-01-15T04:39:35.217Z,94509.69
2023-01-15T04:41:55.698Z,94501.38
2023-01-15T04:44:06.583Z,94507.00
2023-01-15T04:46:09.355Z,94524.72
2023-01-15T04:48:12.712Z,94502.19
2023-01-15T04:50:15.469Z,94507.81
2023-01-15T04:52:19.561Z,94480.06
2023-01-15T04:54:23.027Z,94500.50
2023-01-15T04:56:25.968Z,94503.00
2023-01-15T04:58:28.776Z,94505.38
2023-01-15T05:00:31.509Z,94508.34
2023-01-15T05:02:34.345Z,94503.97
2023-01-15T05:04:37.168Z,94517.34
2023-01-15T05:06:40.073Z,94512.22
2023-01-15T05:08:44.172Z,94526.16
2023-01-15T05:10:46.957Z,94510.91
2023-01-15T05:12:49.729Z,94504.69
2023-01-15T05:14:53.855Z,94516.97
2023-01-15T05:16:56.669Z,94504.69
2023-01-15T05:19:02.454Z,94509.50
2023-01-15T05:21:05.890Z,94506.38
2023-01-15T05:23:08.822Z,94504.63
2023-01-15T05:25:12.891Z,94506.22
2023-01-15T05:27:16.778Z,94510.00
2023-01-15T05:29:19.535Z,94526.81
2023-01-15T05:31:23.022Z,94518.25
2023-01-15T05:33:25.901Z,94525.78
2023-01-15T05:35:28.680Z,94529.28
2023-01-15T05:37:31.606Z,94491.97
2023-01-15T05:39:34.370Z,94525.50
2023-01-15T05:41:51.067Z,94530.97
2023-01-15T05:43:54.039Z,94556.50
2023-01-15T05:45:56.900Z,94559.59
2023-01-15T05:47:59.671Z,94497.41
2023-01-15T05:50:02.564Z,94541.56
2023-01-15T05:52:05.461Z,94553.34
2023-01-15T05:54:09.859Z,94569.41
2023-01-15T05:56:12.735Z,94500.38
2023-01-15T05:58:16.825Z,94572.28
2023-01-15T06:00:20.703Z,94574.72
2023-01-15T06:02:23.499Z,94573.13
2023-01-15T06:04:26.608Z,94572.03
2023-01-15T06:06:30.101Z,94556.47
2023-01-15T06:08:32.873Z,94545.75
2023-01-15T06:10:35.632Z,94577.56
2023-01-15T06:12:38.369Z,94572.22
2023-01-15T06:14:42.504Z,94579.22
2023-01-15T06:16:45.412Z,94578.41
2023-01-15T06:18:48.403Z,94566.09
2023-01-15T06:20:51.156Z,94569.53
2023-01-15T06:22:53.947Z,94576.16
2023-01-15T06:24:56.770Z,94596.47
2023-01-15T06:26:59.501Z,94587.84
2023-01-15T06:29:03.587Z,94595.03
2023-01-15T06:31:08.960Z,94596.50
2023-01-15T06:33:11.744Z,94555.31
2023-01-15T06:35:14.534Z,94607.03
2023-01-15T06:37:17.292Z,94588.25
2023-01-15T06:39:20.021Z,94610.75
2023-01-15T06:41:42.544Z,94574.31
2023-01-15T06:44:03.040Z,94624.00
2023-01-15T06:46:28.009Z,94622.13
2023-01-15T06:48:30.775Z,94627.78
2023-01-15T06:50:33.546Z,94629.16
2023-01-15T06:52:36.301Z,94634.91
2023-01-15T06:54:39.114Z,94627.00
2023-01-15T06:56:41.819Z,94623.28
2023-01-15T06:58:44.839Z,94651.50
2023-01-15T07:00:53.851Z,94656.53
2023-01-15T07:03:00.807Z,94668.28
2023-01-15T07:05:03.784Z,94606.94
2023-01-15T07:07:06.571Z,94674.25
2023-01-15T07:09:09.487Z,94668.66
2023-01-15T07:11:12.452Z,94680.75
2023-01-15T07:13:15.176Z,94685.03
2023-01-15T07:15:17.944Z,94695.13
2023-01-15T07:17:21.109Z,94696.47
2023-01-15T07:19:25.179Z,94709.50
2023-01-15T07:21:27.981Z,94709.41
2023-01-15T07:23:30.722Z,94717.50
2023-01-15T07:25:33.497Z,94728.78
2023-01-15T07:27:36.242Z,94738.09
2023-01-15T07:29:39.002Z,94744.06
2023-01-15T07:31:41.915Z,94751.31
2023-01-15T07:33:45.169Z,94745.59
2023-01-15T07:35:49.234Z,94736.00
2023-01-15T07:37:52.894Z,94766.38
2023-01-15T07:39:55.612Z,94757.56
2023-01-15T07:42:16.149Z,94759.69
2023-01-15T07:44:38.490Z,94759.31
2023-01-15T07:47:01.142Z,94782.75
2023-01-15T07:49:21.240Z,94780.88
2023-01-15T07:51:25.333Z,94779.09
2023-01-15T07:53:29.271Z,94794.28
2023-01-15T07:55:32.230Z,94813.03
2023-01-15T07:57:35.102Z,94802.13
2023-01-15T07:59:37.804Z,94802.50
2023-01-15T08:01:40.782Z,94804.06
2023-01-15T08:03:43.522Z,94802.94
2023-01-15T08:05:46.300Z,94812.88
2023-01-15T08:07:50.533Z,94820.59
2023-01-15T08:09:53.452Z,94820.84
2023-01-15T08:12:13.774Z,94836.09
2023-01-15T08:14:34.099Z,94825.44
2023-01-15T08:16:37.721Z,94821.25
2023-01-15T08:18:40.580Z,94830.31
2023-01-15T08:20:45.043Z,94839.00
2023-01-15T08:22:50.604Z,94865.78
2023-01-15T08:24:53.336Z,94851.09
2023-01-15T08:26:56.666Z,94850.63
2023-01-15T08:29:00.056Z,94863.44
2023-01-15T08:31:02.808Z,94867.38
2023-01-15T08:33:05.695Z,94884.81
2023-01-15T08:35:10.030Z,94882.97
2023-01-15T08:37:12.813Z,94892.34
2023-01-15T08:39:16.906Z,94903.31
2023-01-15T08:41:19.675Z,94841.75
2023-01-15T08:43:22.433Z,94896.91
2023-01-15T08:45:25.591Z,94910.13
2023-01-15T08:47:28.296Z,94915.31
2023-01-15T08:49:31.101Z,94919.34
2023-01-15T08:51:33.852Z,94906.69
2023-01-15T08:53:37.222Z,94941.22
2023-01-15T08:55:41.503Z,94937.66
2023-01-15T08:57:44.650Z,94860.66
2023-01-15T08:59:48.311Z,94935.56
2023-01-15T09:01:51.177Z,94932.25
2023-01-15T09:03:53.968Z,94945.25
2023-01-15T09:05:59.859Z,94939.41
2023-01-15T09:08:02.576Z,94937.53
2023-01-15T09:10:06.236Z,94937.03
2023-01-15T09:12:10.557Z,94936.75
2023-01-15T09:14:56.824Z,94937.28
2023-01-15T09:16:39.638Z,94944.13
2023-01-15T09:18:43.302Z,94949.38
2023-01-15T09:20:46.113Z,94959.44
2023-01-15T09:22:49.353Z,94976.19
2023-01-15T09:24:52.289Z,94978.91
2023-01-15T09:26:55.052Z,94957.28
2023-01-15T09:28:59.630Z,94971.25
2023-01-15T09:31:02.769Z,94977.19
2023-01-15T09:33:05.639Z,94983.13
2023-01-15T09:35:09.485Z,94981.50
2023-01-15T09:37:12.332Z,94998.34
2023-01-15T09:39:15.090Z,94984.47
2023-01-15T09:41:36.466Z,95006.09
2023-01-15T09:43:51.218Z,94982.25
2023-01-15T09:46:00.930Z,94996.84
2023-01-15T09:48:24.609Z,94996.03
2023-01-15T09:50:35.821Z,94933.47
2023-01-15T09:52:59.711Z,94994.88
2023-01-15T09:55:10.674Z,95007.72
2023-01-15T09:57:14.653Z,95015.13
2023-01-15T09:59:23.550Z,94952.16
2023-01-15T10:01:31.500Z,95000.28
2023-01-15T10:03:39.928Z,95013.03
2023-01-15T10:05:49.291Z,95009.72
2023-01-15T10:07:58.992Z,95009.94
2023-01-15T10:10:05.725Z,95027.28
2023-01-15T10:12:34.113Z,95032.00
2023-01-15T10:14:41.741Z,95037.56
2023-01-15T10:16:46.207Z,95031.44
2023-01-15T10:18:49.136Z,95051.78
2023-01-15T10:21:07.426Z,95065.16
2023-01-15T10:23:30.289Z,95052.94
2023-01-15T10:25:39.658Z,95048.19
2023-01-15T10:27:46.127Z,95057.56
2023-01-15T10:29:54.544Z,95062.97
2023-01-15T10:32:06.314Z,95061.56
2023-01-15T10:34:30.043Z,95066.81
2023-01-15T10:36:37.127Z,95036.75
2023-01-15T10:38:49.998Z,95056.28
2023-01-15T10:41:07.854Z,95057.56
2023-01-15T10:43:18.916Z,95062.03
2023-01-15T10:45:25.403Z,95047.69
2023-01-15T10:47:33.985Z,95041.69
2023-01-15T10:49:38.809Z,95063.91
2023-01-15T10:51:45.544Z,95059.72
2023-01-15T10:53:52.738Z,95054.31
2023-01-15T10:56:01.964Z,95059.16
2023-01-15T10:58:12.713Z,95064.94
2023-01-15T11:00:16.194Z,95060.09
2023-01-15T11:02:29.032Z,95071.09
2023-01-15T11:04:33.561Z,95077.78
2023-01-15T11:06:36.429Z,95080.44
2023-01-15T11:09:07.808Z,95078.00
2023-01-15T11:11:19.152Z,95086.78
2023-01-15T11:13:42.475Z,95078.09
2023-01-15T11:16:04.931Z,95095.34
2023-01-15T11:18:33.624Z,95085.75
2023-01-15T11:20:45.194Z,95097.19
2023-01-15T11:22:48.052Z,95026.06
2023-01-15T11:24:53.226Z,95093.59
2023-01-15T11:26:56.098Z,95044.00
2023-01-15T11:29:00.775Z,95148.22
2023-01-15T11:31:04.354Z,95141.09
2023-01-15T11:33:23.211Z,95156.56
2023-01-15T11:35:27.269Z,95158.19
2023-01-15T11:37:32.241Z,95147.69
2023-01-15T11:39:34.960Z,95150.75
2023-01-15T11:41:51.626Z,95151.78
2023-01-15T11:44:16.174Z,95162.53
2023-01-15T11:46:42.056Z,95139.97
2023-01-15T11:49:03.776Z,95179.78
2023-01-15T11:51:09.576Z,95153.25
2023-01-15T11:53:19.526Z,95165.78
2023-01-15T11:55:24.542Z,95180.09
2023-01-15T11:57:30.234Z,95137.97
2023-01-15T11:59:33.579Z,95116.81
2023-01-15T12:01:38.547Z,95155.44
2023-01-15T12:03:42.451Z,95163.59
2023-01-15T12:05:48.628Z,95176.78
2023-01-15T12:07:54.076Z,95183.28
2023-01-15T12:10:14.123Z,95175.91
2023-01-15T12:12:30.326Z,95183.19
2023-01-15T12:14:45.620Z,95149.94
2023-01-15T12:16:55.494Z,95191.81
2023-01-15T12:19:02.091Z,95179.63
2023-01-15T12:21:10.621Z,95189.63
2023-01-15T12:23:37.511Z,95174.72
2023-01-15T12:25:49.692Z,95179.44
2023-01-15T12:28:01.605Z,95170.00
2023-01-15T12:30:15.544Z,95175.28
2023-01-15T12:32:20.824Z,95174.63
2023-01-15T12:34:27.609Z,95176.13
2023-01-15T12:36:38.559Z,95177.56
2023-01-15T12:38:50.291Z,95162.47
2023-01-15T12:41:00.966Z,95100.44
2023-01-15T12:43:21.295Z,95182.00
2023-01-15T12:45:29.035Z,95137.97
2023-01-15T12:47:38.040Z,95177.91
2023-01-15T12:49:48.035Z,95180.00
2023-01-15T12:51:54.992Z,95153.28
2023-01-15T12:54:04.330Z,95061.19
2023-01-15T12:56:15.953Z,95203.03
2023-01-15T12:58:35.352Z,95205.41
2023-01-15T13:00:42.345Z,95207.50
2023-01-15T13:02:58.747Z,95197.84
2023-01-15T13:05:17.520Z,95201.00
2023-01-15T13:07:27.963Z,95168.50
2023-01-15T13:09:39.668Z,95167.91
2023-01-15T13:11:43.909Z,95197.66
2023-01-15T13:13:57.974Z,95201.81
2023-01-15T13:16:12.160Z,95205.22
2023-01-15T13:18:23.295Z,95207.13
2023-01-15T13:20:37.654Z,95194.88
2023-01-15T13:22:53.463Z,95215.25
2023-01-15T13:25:35.728Z,95227.81
2023-01-15T13:27:55.888Z,95213.75
2023-01-15T13:30:13.400Z,95221.22
2023-01-15T13:32:20.493Z,95213.53
2023-01-15T13:34:30.252Z,95221.94
2023-01-15T13:36:40.415Z,95045.81
2023-01-15T13:38:46.471Z,95228.66
2023-01-15T13:40:53.110Z,95233.34
2023-01-15T13:42:57.615Z,95126.72
2023-01-15T13:45:04.512Z,95235.50
2023-01-15T13:47:10.141Z,95210.66
2023-01-15T13:49:20.591Z,95257.50
2023-01-15T13:51:30.532Z,95206.47
2023-01-15T13:53:35.354Z,95247.94
2023-01-15T13:55:41.438Z,95227.28
2023-01-15T13:57:44.686Z,95201.50
2023-01-15T13:59:50.674Z,95245.16
2023-01-15T14:01:53.530Z,95244.25
2023-01-15T14:04:00.800Z,95227.38
2023-01-15T14:06:06.538Z,95246.84
2023-01-15T14:08:17.632Z,95251.72
2023-01-15T14:10:36.845Z,95256.19
2023-01-15T14:12:51.451Z,95249.06
2023-01-15T14:15:09.688Z,95257.38
2023-01-15T14:17:45.403Z,95267.03
2023-01-15T14:20:03.962Z,95252.59
2023-01-15T14:22:30.951Z,95265.16
2023-01-15T14:24:57.824Z,95263.53
2023-01-15T14:27:08.660Z,95245.63
2023-01-15T14:29:43.394Z,95251.50
2023-01-15T14:31:53.570Z,95260.78
2023-01-15T14:34:21.724Z,95267.59
2023-01-15T14:36:28.543Z,95265.47
2023-01-15T14:38:33.343Z,95252.41
2023-01-15T14:40:40.649Z,95248.81
2023-01-15T14:43:01.064Z,95260.88
2023-01-15T14:45:08.026Z,95267.34
2023-01-15T14:47:25.651Z,95263.53
2023-01-15T14:49:30.352Z,95269.53
2023-01-15T14:51:37.290Z,95267.25
2023-01-15T14:53:45.073Z,95267.66
2023-01-15T14:55:50.757Z,95259.66
2023-01-15T14:58:00.834Z,95259.47
2023-01-15T15:00:06.603Z,95272.09
2023-01-15T15:02:22.458Z,95272.69
2023-01-15T15:04:34.964Z,95267.63
2023-01-15T15:06:48.384Z,95246.88
2023-01-15T15:08:53.417Z,95267.63
2023-01-15T15:10:59.294Z,95275.13
2023-01-15T15:13:09.689Z,95250.59
2023-01-15T15:15:17.936Z,95261.00
2023-01-15T15:17:32.352Z,95281.00
2023-01-15T15:19:40.122Z,95301.75
2023-01-15T15:21:46.260Z,95258.56
2023-01-15T15:23:57.082Z,95286.88
2023-01-15T15:26:01.959Z,95289.66
2023-01-15T15:28:06.334Z,95301.00
2023-01-15T15:30:15.366Z,95258.81
2023-01-15T15:32:21.526Z,95283.06
2023-01-15T15:34:29.699Z,95304.56
2023-01-15T15:36:34.818Z,95306.47
2023-01-15T15:38:40.406Z,95312.38
2023-01-15T15:40:48.275Z,95299.56
2023-01-15T15:43:16.339Z,95290.09
2023-01-15T15:45:41.072Z,95289.19
2023-01-15T15:48:02.001Z,95267.34
2023-01-15T15:50:06.885Z,95210.16
2023-01-15T15:52:20.178Z,95280.00
2023-01-15T15:54:26.459Z,95300.47
2023-01-15T15:56:30.655Z,95280.81
2023-01-15T15:58:36.795Z,95290.28
2023-01-15T16:00:43.128Z,95283.13
2023-01-15T16:02:46.232Z,95284.50
2023-01-15T16:04:51.472Z,95271.44
2023-01-15T16:06:55.697Z,95276.53
2023-01-15T16:09:04.520Z,95277.56
2023-01-15T16:11:12.365Z,95272.56
2023-01-15T16:13:26.192Z,95275.31
2023-01-15T16:15:32.191Z,95240.19
2023-01-15T16:17:35.736Z,95234.75
2023-01-15T16:19:38.923Z,95263.44
2023-01-15T16:21:43.175Z,95281.78
2023-01-15T16:23:58.236Z,95276.53
2023-01-15T16:26:06.975Z,95271.72
2023-01-15T16:28:25.400Z,95258.88
2023-01-15T16:30:28.910Z,95263.16
2023-01-15T16:32:35.742Z,95191.53
2023-01-15T16:34:38.644Z,95257.22
2023-01-15T16:36:45.450Z,95231.00
2023-01-15T16:38:51.624Z,95264.69
2023-01-15T16:40:55.868Z,95226.00
2023-01-15T16:43:06.801Z,95270.09
2023-01-15T16:45:21.507Z,95255.41
2023-01-15T16:47:26.756Z,95269.00
2023-01-15T16:49:31.027Z,95254.97
2023-01-15T16:51:35.669Z,95251.34
2023-01-15T16:53:40.858Z,95171.03
2023-01-15T16:55:45.315Z,95199.84
2023-01-15T16:57:49.433Z,95266.66
2023-01-15T16:59:58.000Z,95267.91
2023-01-15T17:02:08.159Z,95265.53
2023-01-15T17:04:26.520Z,95270.28
2023-01-15T17:06:30.346Z,95265.63
2023-01-15T17:08:38.283Z,95251.31
2023-01-15T17:10:41.072Z,95110.19
2023-01-15T17:12:44.569Z,95246.44
2023-01-15T17:14:48.792Z,95255.06
2023-01-15T17:17:18.660Z,95243.28
2023-01-15T17:19:24.239Z,95243.19
2023-01-15T17:21:29.345Z,95203.09
2023-01-15T17:23:42.807Z,95248.97
2023-01-15T17:25:48.382Z,95199.34
2023-01-15T17:27:51.199Z,95253.09
2023-01-15T17:29:55.575Z,95188.63
2023-01-15T17:31:58.421Z,95244.75
2023-01-15T17:34:02.709Z,95247.19
2023-01-15T17:36:06.019Z,95237.00
2023-01-15T17:38:11.889Z,95237.31
2023-01-15T17:40:15.143Z,95231.41
2023-01-15T17:42:20.369Z,95241.13
2023-01-15T17:44:23.122Z,95236.25
2023-01-15T17:46:27.359Z,95244.38
2023-01-15T17:48:30.195Z,95216.94
2023-01-15T17:50:32.944Z,95234.63
2023-01-15T17:52:35.701Z,95242.81
2023-01-15T17:54:56.177Z,95219.91
2023-01-15T17:57:16.622Z,95177.59
2023-01-15T17:59:36.765Z,95237.06
2023-01-15T18:02:00.786Z,95235.88
2023-01-15T18:04:21.396Z,95227.50
2023-01-15T18:06:24.220Z,95170.59
2023-01-15T18:08:27.036Z,95207.81
2023-01-15T18:10:29.906Z,95241.13
2023-01-15T18:12:32.644Z,95231.84
2023-01-15T18:14:35.445Z,95198.44
2023-01-15T18:16:38.993Z,95234.41
2023-01-15T18:18:43.309Z,95236.84
2023-01-15T18:20:46.547Z,95237.66
2023-01-15T18:22:49.283Z,95223.22
2023-01-15T18:24:52.013Z,95200.72
2023-01-15T18:26:55.598Z,95217.53
2023-01-15T18:28:58.359Z,95212.38
2023-01-15T18:31:01.762Z,95198.91
2023-01-15T18:33:05.264Z,95215.16
2023-01-15T18:35:11.804Z,95194.22
2023-01-15T18:37:14.562Z,95204.25
2023-01-15T18:39:17.330Z,95214.66
2023-01-15T18:41:52.831Z,95193.66
2023-01-15T18:44:13.218Z,95199.56
2023-01-15T18:46:33.592Z,95206.91
2023-01-15T18:48:36.375Z,95212.22
2023-01-15T18:50:40.486Z,95154.69
2023-01-15T18:52:51.413Z,95106.13
2023-01-15T18:54:54.586Z,95175.44
2023-01-15T18:56:57.395Z,95129.34
2023-01-15T18:59:00.130Z,95179.88
2023-01-15T19:01:07.618Z,95144.38
2023-01-15T19:03:10.403Z,95175.59
2023-01-15T19:05:15.261Z,95186.34
2023-01-15T19:07:19.476Z,95190.56
2023-01-15T19:09:24.178Z,95183.78
2023-01-15T19:11:26.978Z,95179.66
2023-01-15T19:13:29.737Z,95170.22
2023-01-15T19:15:55.407Z,95177.75
2023-01-15T19:18:15.559Z,95170.47
2023-01-15T19:20:20.261Z,95139.94
2023-01-15T19:22:41.949Z,95161.63
2023-01-15T19:24:44.701Z,95165.31
2023-01-15T19:26:47.436Z,95164.59
2023-01-15T19:28:50.105Z,95163.97
2023-01-15T19:31:06.848Z,95152.25
2023-01-15T19:33:10.967Z,95158.50
2023-01-15T19:35:14.226Z,95160.56
2023-01-15T19:37:17.009Z,95158.88
2023-01-15T19:39:21.326Z,95141.69
2023-01-15T19:41:41.442Z,95139.25
2023-01-15T19:44:01.527Z,95122.22
2023-01-15T19:46:21.803Z,95119.41
2023-01-15T19:48:42.058Z,95101.34
2023-01-15T19:50:46.261Z,95120.94
2023-01-15T19:52:50.445Z,95106.50
2023-01-15T19:54:57.312Z,95105.78
2023-01-15T19:57:00.010Z,95097.66
2023-01-15T19:59:02.795Z,95094.44
2023-01-15T20:01:05.918Z,95088.47
2023-01-15T20:03:10.232Z,95091.94
2023-01-15T20:05:15.736Z,95090.91
2023-01-15T20:07:18.613Z,95056.50
2023-01-15T20:09:21.348Z,95072.56
2023-01-15T20:11:45.443Z,95066.28
2023-01-15T20:13:51.540Z,95063.41
2023-01-15T20:15:54.341Z,95023.13
2023-01-15T20:17:58.191Z,95065.63
2023-01-15T20:20:00.941Z,95066.88
2023-01-15T20:22:03.825Z,95057.59
2023-01-15T20:24:07.233Z,95054.00
2023-01-15T20:26:12.418Z,95059.53
2023-01-15T20:28:17.336Z,95048.41
2023-01-15T20:30:22.364Z,95051.72
2023-01-15T20:32:25.164Z,95046.19
2023-01-15T20:34:30.633Z,95041.97
2023-01-15T20:36:34.736Z,95020.56
2023-01-15T20:38:37.491Z,95032.69
2023-01-15T20:40:40.288Z,95048.28
2023-01-15T20:43:00.819Z,95021.81
2023-01-15T20:45:10.539Z,95009.59
2023-01-15T20:47:27.282Z,95007.59
2023-01-15T20:49:32.327Z,95002.34
2023-01-15T20:51:35.080Z,95010.91
2023-01-15T20:53:38.701Z,94996.84
2023-01-15T20:55:55.738Z,94990.50
2023-01-15T20:57:59.646Z,94993.22
2023-01-15T21:00:04.209Z,94992.19
2023-01-15T21:02:09.893Z,94972.75
2023-01-15T21:04:14.144Z,94969.09
2023-01-15T21:06:16.931Z,94955.25
2023-01-15T21:08:20.946Z,94934.19
2023-01-15T21:10:25.244Z,94900.25
2023-01-15T21:12:28.256Z,94973.66
2023-01-15T21:14:30.989Z,94973.50
2023-01-15T21:16:33.805Z,94959.22
2023-01-15T21:18:38.946Z,94975.06
2023-01-15T21:20:41.701Z,94952.75
2023-01-15T21:22:44.874Z,94962.91
2023-01-15T21:24:49.125Z,94960.84
2023-01-15T21:26:52.812Z,94894.94
2023-01-15T21:28:56.623Z,94922.28
2023-01-15T21:31:03.885Z,94947.09
2023-01-15T21:33:09.020Z,94947.25
2023-01-15T21:35:13.289Z,94940.53
2023-01-15T21:37:16.403Z,94935.69
2023-01-15T21:39:19.411Z,94891.53
2023-01-15T21:41:45.932Z,94929.06
2023-01-15T21:44:06.103Z,94930.25
2023-01-15T21:46:08.879Z,94933.91
2023-01-15T21:48:11.593Z,94922.16
2023-01-15T21:50:16.838Z,94929.50
2023-01-15T21:52:21.239Z,94927.88
2023-01-15T21:54:23.992Z,94901.97
2023-01-15T21:56:26.773Z,94839.94
2023-01-15T21:58:29.493Z,94906.31
2023-01-15T22:00:32.242Z,94917.44
2023-01-15T22:02:35.925Z,94919.94
2023-01-15T22:04:38.865Z,94913.75
2023-01-15T22:06:43.065Z,94918.63
2023-01-15T22:08:45.740Z,94909.63
2023-01-15T22:10:49.822Z,94908.47
2023-01-15T22:12:52.583Z,94892.78
2023-01-15T22:14:56.523Z,94900.75
2023-01-15T22:17:01.326Z,94834.25
2023-01-15T22:19:04.067Z,94854.84
2023-01-15T22:21:08.535Z,94828.72
2023-01-15T22:23:12.647Z,94840.72
2023-01-15T22:25:15.797Z,94856.69
2023-01-15T22:27:20.131Z,94553.97
2023-01-15T22:29:23.180Z,94859.19
2023-01-15T22:31:26.546Z,94860.81
2023-01-15T22:33:29.253Z,94859.91
2023-01-15T22:35:31.971Z,94867.88
2023-01-15T22:37:34.697Z,94863.38
2023-01-15T22:39:38.804Z,94860.88
2023-01-15T22:41:58.936Z,94863.75
2023-01-15T22:44:01.667Z,94863.38
2023-01-15T22:46:11.545Z,94853.59
2023-01-15T22:48:14.287Z,94840.78
2023-01-15T22:50:17.622Z,94845.88
2023-01-15T22:52:20.778Z,94788.44
2023-01-15T22:54:23.678Z,94849.47
2023-01-15T22:56:27.857Z,94834.75
2023-01-15T22:58:30.543Z,94834.09
2023-01-15T23:00:33.506Z,94818.72
2023-01-15T23:02:53.620Z,94737.28
2023-01-15T23:04:56.375Z,94827.84
2023-01-15T23:06:59.109Z,94754.06
2023-01-15T23:09:03.683Z,94810.03
2023-01-15T23:11:10.391Z,94747.22
2023-01-15T23:13:14.539Z,94798.72
2023-01-15T23:15:17.347Z,94810.44
2023-01-15T23:17:20.035Z,94799.84
2023-01-15T23:19:22.836Z,94794.53
2023-01-15T23:21:26.948Z,94797.19
2023-01-15T23:23:29.686Z,94794.47
2023-01-15T23:25:32.409Z,94757.28
2023-01-15T23:27:35.126Z,94782.47
2023-01-15T23:29:39.234Z,94778.94
2023-01-15T23:31:41.959Z,94785.19
2023-01-15T23:33:45.204Z,94778.84
2023-01-15T23:35:48.232Z,94667.94
2023-01-15T23:37:50.991Z,94754.00
2023-01-15T23:39:53.845Z,94766.81
2023-01-15T23:42:14.207Z,94746.63
2023-01-15T23:44:35.686Z,94648.28
2023-01-15T23:46:40.336Z,94748.41
2023-01-15T23:48:43.375Z,94726.03
2023-01-15T23:50:46.112Z,94736.44
2023-01-15T23:52:48.850Z,94737.00
2023-01-15T23:54:51.626Z,94746.81
2023-01-15T23:56:54.337Z,94732.84
2023-01-15T23:58:57.641Z,94615.88
